sensor_id;sensor_type;location;lat;lon;timestamp;temperature;humidity
56869;DHT22;42754;0.000;0.000;2022-09-13T00:01:13;17.90;99.90
56869;DHT22;42754;0.000;0.000;2022-09-13T00:03:39;17.90;99.90
56869;DHT22;42754;0.000;0.000;2022-09-13T00:06:10;17.90;99.90
56869;DHT22;42754;0.000;0.000;2022-09-13T00:08:36;17.90;99.90
56869;DHT22;42754;0.000;0.000;2022-09-13T00:11:03;17.90;99.90
56869;DHT22;42754;0.000;0.000;2022-09-13T00:13:28;17.90;99.90
56869;DHT22;42754;0.000;0.000;2022-09-13T00:15:54;17.90;99.90
56869;DHT22;42754;0.000;0.000;2022-09-13T00:18:20;17.90;99.90
56869;DHT22;42754;0.000;0.000;2022-09-13T00:20:45;17.90;99.90
56869;DHT22;42754;0.000;0.000;2022-09-13T00:23:12;17.90;99.90
56869;DHT22;42754;0.000;0.000;2022-09-13T00:25:37;17.90;99.90
56869;DHT22;42754;0.000;0.000;2022-09-13T00:28:03;17.90;99.90
56869;DHT22;42754;0.000;0.000;2022-09-13T00:30:29;17.90;99.90
56869;DHT22;42754;0.000;0.000;2022-09-13T00:32:55;17.90;99.90
56869;DHT22;42754;0.000;0.000;2022-09-13T00:35:21;17.90;99.90
56869;DHT22;42754;0.000;0.000;2022-09-13T00:37:48;17.90;99.90
56869;DHT22;42754;0.000;0.000;2022-09-13T00:40:13;17.90;99.90
56869;DHT22;42754;0.000;0.000;2022-09-13T00:45:18;17.90;99.90
56869;DHT22;42754;0.000;0.000;2022-09-13T00:53:22;17.80;99.90
56869;DHT22;42754;0.000;0.000;2022-09-13T00:55:59;17.70;99.90
56869;DHT22;42754;0.000;0.000;2022-09-13T00:58:34;17.70;99.90
56869;DHT22;42754;0.000;0.000;2022-09-13T01:01:02;17.70;99.90
56869;DHT22;42754;0.000;0.000;2022-09-13T01:03:30;17.70;99.90
56869;DHT22;42754;0.000;0.000;2022-09-13T01:06:09;17.60;99.90
56869;DHT22;42754;0.000;0.000;2022-09-13T01:08:37;17.60;99.90
56869;DHT22;42754;0.000;0.000;2022-09-13T01:11:05;17.60;99.90
56869;DHT22;42754;0.000;0.000;2022-09-13T01:13:37;17.60;99.90
56869;DHT22;42754;0.000;0.000;2022-09-13T01:16:02;17.60;99.90
56869;DHT22;42754;0.000;0.000;2022-09-13T01:18:28;17.60;99.90
56869;DHT22;42754;0.000;0.000;2022-09-13T01:27:02;17.50;99.90
56869;DHT22;42754;0.000;0.000;2022-09-13T01:32:42;17.60;99.90
56869;DHT22;42754;0.000;0.000;2022-09-13T01:35:31;17.50;99.90
56869;DHT22;42754;0.000;0.000;2022-09-13T01:38:05;17.40;99.90
56869;DHT22;42754;0.000;0.000;2022-09-13T01:40:50;17.50;99.90
56869;DHT22;42754;0.000;0.000;2022-09-13T01:43:48;17.50;99.90
56869;DHT22;42754;0.000;0.000;2022-09-13T01:46:24;17.50;99.90
56869;DHT22;42754;0.000;0.000;2022-09-13T01:49:15;17.50;99.90
56869;DHT22;42754;0.000;0.000;2022-09-13T01:51:47;17.50;99.90
56869;DHT22;42754;0.000;0.000;2022-09-13T01:54:32;17.40;99.90
56869;DHT22;42754;0.000;0.000;2022-09-13T01:57:06;17.50;99.90
56869;DHT22;42754;0.000;0.000;2022-09-13T01:59:46;17.40;99.90
56869;DHT22;42754;0.000;0.000;2022-09-13T02:04:55;17.50;99.90
56869;DHT22;42754;0.000;0.000;2022-09-13T02:07:47;17.40;99.90
56869;DHT22;42754;0.000;0.000;2022-09-13T02:10:22;17.40;99.90
56869;DHT22;42754;0.000;0.000;2022-09-13T02:12:51;17.50;99.90
56869;DHT22;42754;0.000;0.000;2022-09-13T02:15:22;17.50;99.90
56869;DHT22;42754;0.000;0.000;2022-09-13T02:18:09;17.50;99.90
56869;DHT22;42754;0.000;0.000;2022-09-13T02:20:41;17.50;99.90
56869;DHT22;42754;0.000;0.000;2022-09-13T02:23:13;17.40;99.90
56869;DHT22;42754;0.000;0.000;2022-09-13T02:25:40;17.40;99.90
56869;DHT22;42754;0.000;0.000;2022-09-13T02:28:10;17.40;99.90
56869;DHT22;42754;0.000;0.000;2022-09-13T02:30:40;17.40;99.90
56869;DHT22;42754;0.000;0.000;2022-09-13T02:33:15;17.40;99.90
56869;DHT22;42754;0.000;0.000;2022-09-13T02:35:50;17.40;99.90
56869;DHT22;42754;0.000;0.000;2022-09-13T02:38:22;17.40;99.90
56869;DHT22;42754;0.000;0.000;2022-09-13T02:40:55;17.40;99.90
56869;DHT22;42754;0.000;0.000;2022-09-13T02:43:57;17.40;99.90
56869;DHT22;42754;0.000;0.000;2022-09-13T02:49:10;17.50;99.90
56869;DHT22;42754;0.000;0.000;2022-09-13T02:52:06;17.50;99.90
56869;DHT22;42754;0.000;0.000;2022-09-13T02:54:57;17.50;99.90
56869;DHT22;42754;0.000;0.000;2022-09-13T02:57:39;17.50;99.90
56869;DHT22;42754;0.000;0.000;2022-09-13T03:00:07;17.40;99.90
56869;DHT22;42754;0.000;0.000;2022-09-13T03:02:34;17.40;99.90
56869;DHT22;42754;0.000;0.000;2022-09-13T03:05:04;17.40;99.90
56869;DHT22;42754;0.000;0.000;2022-09-13T03:07:30;17.40;99.90
56869;DHT22;42754;0.000;0.000;2022-09-13T03:10:16;17.40;99.90
56869;DHT22;42754;0.000;0.000;2022-09-13T03:13:16;17.40;99.90
56869;DHT22;42754;0.000;0.000;2022-09-13T03:16:03;17.40;99.90
56869;DHT22;42754;0.000;0.000;2022-09-13T03:18:35;17.40;99.90
56869;DHT22;42754;0.000;0.000;2022-09-13T03:21:26;17.40;99.90
56869;DHT22;42754;0.000;0.000;2022-09-13T03:24:24;17.40;99.90
56869;DHT22;42754;0.000;0.000;2022-09-13T03:27:17;17.40;99.90
56869;DHT22;42754;0.000;0.000;2022-09-13T03:30:10;17.30;99.90
56869;DHT22;42754;0.000;0.000;2022-09-13T03:32:54;17.30;99.90
56869;DHT22;42754;0.000;0.000;2022-09-13T03:37:59;17.20;99.90
56869;DHT22;42754;0.000;0.000;2022-09-13T03:43:34;17.20;99.90
56869;DHT22;42754;0.000;0.000;2022-09-13T03:46:13;17.20;99.90
56869;DHT22;42754;0.000;0.000;2022-09-13T03:48:40;17.10;99.90
56869;DHT22;42754;0.000;0.000;2022-09-13T03:51:07;17.10;99.90
56869;DHT22;42754;0.000;0.000;2022-09-13T03:53:38;17.20;99.90
56869;DHT22;42754;0.000;0.000;2022-09-13T03:56:15;17.20;99.90
56869;DHT22;42754;0.000;0.000;2022-09-13T03:58:41;17.20;99.90
56869;DHT22;42754;0.000;0.000;2022-09-13T04:01:07;17.20;99.90
56869;DHT22;42754;0.000;0.000;2022-09-13T04:03:36;17.20;99.90
56869;DHT22;42754;0.000;0.000;2022-09-13T04:06:02;17.20;99.90
56869;DHT22;42754;0.000;0.000;2022-09-13T04:08:28;17.20;99.90
56869;DHT22;42754;0.000;0.000;2022-09-13T04:10:53;17.20;99.90
56869;DHT22;42754;0.000;0.000;2022-09-13T04:13:19;17.20;99.90
56869;DHT22;42754;0.000;0.000;2022-09-13T04:15:46;17.20;99.90
56869;DHT22;42754;0.000;0.000;2022-09-13T04:18:12;17.30;99.90
56869;DHT22;42754;0.000;0.000;2022-09-13T04:20:37;17.30;99.90
56869;DHT22;42754;0.000;0.000;2022-09-13T04:23:04;17.20;99.90
56869;DHT22;42754;0.000;0.000;2022-09-13T04:25:29;17.20;99.90
56869;DHT22;42754;0.000;0.000;2022-09-13T04:27:56;17.20;99.90
56869;DHT22;42754;0.000;0.000;2022-09-13T04:30:25;17.20;99.90
56869;DHT22;42754;0.000;0.000;2022-09-13T04:32:50;17.20;99.90
56869;DHT22;42754;0.000;0.000;2022-09-13T04:35:17;17.20;99.90
56869;DHT22;42754;0.000;0.000;2022-09-13T04:37:44;17.20;99.90
56869;DHT22;42754;0.000;0.000;2022-09-13T04:40:11;17.20;99.90
56869;DHT22;42754;0.000;0.000;2022-09-13T04:42:37;17.20;99.90
56869;DHT22;42754;0.000;0.000;2022-09-13T04:45:03;17.20;99.90
56869;DHT22;42754;0.000;0.000;2022-09-13T04:47:31;17.20;99.90
56869;DHT22;42754;0.000;0.000;2022-09-13T04:49:56;17.20;99.90
56869;DHT22;42754;0.000;0.000;2022-09-13T04:52:22;17.20;99.90
56869;DHT22;42754;0.000;0.000;2022-09-13T04:54:48;17.20;99.90
56869;DHT22;42754;0.000;0.000;2022-09-13T04:57:14;17.20;99.90
56869;DHT22;42754;0.000;0.000;2022-09-13T04:59:41;17.20;99.90
56869;DHT22;42754;0.000;0.000;2022-09-13T05:02:07;17.10;99.90
56869;DHT22;42754;0.000;0.000;2022-09-13T05:04:33;17.10;99.90
56869;DHT22;42754;0.000;0.000;2022-09-13T05:06:59;17.10;99.90
56869;DHT22;42754;0.000;0.000;2022-09-13T05:09:24;17.10;99.90
56869;DHT22;42754;0.000;0.000;2022-09-13T05:11:50;17.00;99.90
56869;DHT22;42754;0.000;0.000;2022-09-13T05:14:16;17.00;99.90
56869;DHT22;42754;0.000;0.000;2022-09-13T05:16:42;17.10;99.90
56869;DHT22;42754;0.000;0.000;2022-09-13T05:19:10;17.10;99.90
56869;DHT22;42754;0.000;0.000;2022-09-13T05:21:36;17.10;99.90
56869;DHT22;42754;0.000;0.000;2022-09-13T05:24:03;17.10;99.90
56869;DHT22;42754;0.000;0.000;2022-09-13T05:26:29;17.20;99.90
56869;DHT22;42754;0.000;0.000;2022-09-13T05:28:59;17.10;99.90
56869;DHT22;42754;0.000;0.000;2022-09-13T05:31:30;17.10;99.90
56869;DHT22;42754;0.000;0.000;2022-09-13T05:33:58;17.10;99.90
56869;DHT22;42754;0.000;0.000;2022-09-13T05:36:33;17.10;99.90
56869;DHT22;42754;0.000;0.000;2022-09-13T05:38:59;17.10;99.90
56869;DHT22;42754;0.000;0.000;2022-09-13T05:41:25;17.20;99.90
56869;DHT22;42754;0.000;0.000;2022-09-13T05:43:51;17.20;99.90
56869;DHT22;42754;0.000;0.000;2022-09-13T05:46:18;17.20;99.90
56869;DHT22;42754;0.000;0.000;2022-09-13T05:48:45;17.20;99.90
56869;DHT22;42754;0.000;0.000;2022-09-13T05:51:21;17.20;99.90
56869;DHT22;42754;0.000;0.000;2022-09-13T05:53:52;17.20;99.90
56869;DHT22;42754;0.000;0.000;2022-09-13T05:56:20;17.20;99.90
56869;DHT22;42754;0.000;0.000;2022-09-13T05:58:47;17.20;99.90
56869;DHT22;42754;0.000;0.000;2022-09-13T06:01:15;17.20;99.90
56869;DHT22;42754;0.000;0.000;2022-09-13T06:03:41;17.20;99.90
56869;DHT22;42754;0.000;0.000;2022-09-13T06:06:07;17.20;99.90
56869;DHT22;42754;0.000;0.000;2022-09-13T06:08:34;17.30;99.90
56869;DHT22;42754;0.000;0.000;2022-09-13T06:11:05;17.30;99.90
56869;DHT22;42754;0.000;0.000;2022-09-13T06:13:32;17.40;99.90
56869;DHT22;42754;0.000;0.000;2022-09-13T06:16:07;17.40;99.90
56869;DHT22;42754;0.000;0.000;2022-09-13T06:18:34;17.50;99.90
56869;DHT22;42754;0.000;0.000;2022-09-13T06:21:05;17.50;99.90
56869;DHT22;42754;0.000;0.000;2022-09-13T06:23:31;17.50;99.90
56869;DHT22;42754;0.000;0.000;2022-09-13T06:26:08;17.60;99.90
56869;DHT22;42754;0.000;0.000;2022-09-13T06:28:35;17.60;99.90
56869;DHT22;42754;0.000;0.000;2022-09-13T06:31:01;17.70;99.90
56869;DHT22;42754;0.000;0.000;2022-09-13T06:33:27;17.70;99.90
56869;DHT22;42754;0.000;0.000;2022-09-13T06:35:53;17.80;99.90
56869;DHT22;42754;0.000;0.000;2022-09-13T06:38:19;17.80;99.90
56869;DHT22;42754;0.000;0.000;2022-09-13T06:40:44;17.90;99.90
56869;DHT22;42754;0.000;0.000;2022-09-13T06:43:10;17.90;99.90
56869;DHT22;42754;0.000;0.000;2022-09-13T06:45:39;17.90;99.90
56869;DHT22;42754;0.000;0.000;2022-09-13T06:48:05;18.00;99.90
56869;DHT22;42754;0.000;0.000;2022-09-13T06:50:31;18.00;99.90
56869;DHT22;42754;0.000;0.000;2022-09-13T06:52:56;18.00;99.90
56869;DHT22;42754;0.000;0.000;2022-09-13T06:55:22;18.10;99.90
56869;DHT22;42754;0.000;0.000;2022-09-13T06:57:57;18.10;99.90
56869;DHT22;42754;0.000;0.000;2022-09-13T07:00:23;18.10;99.90
56869;DHT22;42754;0.000;0.000;2022-09-13T07:02:52;18.10;99.90
56869;DHT22;42754;0.000;0.000;2022-09-13T07:05:17;18.10;99.90
56869;DHT22;42754;0.000;0.000;2022-09-13T07:07:45;18.10;99.90
56869;DHT22;42754;0.000;0.000;2022-09-13T07:10:11;18.20;99.90
56869;DHT22;42754;0.000;0.000;2022-09-13T07:12:40;18.20;99.90
56869;DHT22;42754;0.000;0.000;2022-09-13T07:15:06;18.20;99.90
56869;DHT22;42754;0.000;0.000;2022-09-13T07:17:32;18.20;99.90
56869;DHT22;42754;0.000;0.000;2022-09-13T07:19:58;18.20;99.90
56869;DHT22;42754;0.000;0.000;2022-09-13T07:22:24;18.30;99.90
56869;DHT22;42754;0.000;0.000;2022-09-13T07:24:52;18.30;99.90
56869;DHT22;42754;0.000;0.000;2022-09-13T07:27:18;18.30;99.90
56869;DHT22;42754;0.000;0.000;2022-09-13T07:29:44;18.40;99.90
56869;DHT22;42754;0.000;0.000;2022-09-13T07:32:10;18.40;99.90
56869;DHT22;42754;0.000;0.000;2022-09-13T07:34:35;18.50;99.90
56869;DHT22;42754;0.000;0.000;2022-09-13T07:37:01;18.50;99.90
56869;DHT22;42754;0.000;0.000;2022-09-13T07:39:26;18.60;99.90
56869;DHT22;42754;0.000;0.000;2022-09-13T07:41:52;18.60;99.90
56869;DHT22;42754;0.000;0.000;2022-09-13T07:44:18;18.70;99.90
56869;DHT22;42754;0.000;0.000;2022-09-13T07:46:44;18.70;99.90
56869;DHT22;42754;0.000;0.000;2022-09-13T07:49:12;18.80;99.90
56869;DHT22;42754;0.000;0.000;2022-09-13T07:51:40;18.80;99.90
56869;DHT22;42754;0.000;0.000;2022-09-13T07:54:10;18.90;99.90
56869;DHT22;42754;0.000;0.000;2022-09-13T07:56:38;19.00;99.90
56869;DHT22;42754;0.000;0.000;2022-09-13T07:59:09;19.00;99.90
56869;DHT22;42754;0.000;0.000;2022-09-13T08:01:38;19.00;99.90
56869;DHT22;42754;0.000;0.000;2022-09-13T08:04:07;19.00;99.90
56869;DHT22;42754;0.000;0.000;2022-09-13T08:06:34;19.10;99.90
56869;DHT22;42754;0.000;0.000;2022-09-13T08:09:01;19.20;99.90
56869;DHT22;42754;0.000;0.000;2022-09-13T08:11:30;19.30;99.90
56869;DHT22;42754;0.000;0.000;2022-09-13T08:13:56;19.30;99.90
56869;DHT22;42754;0.000;0.000;2022-09-13T08:16:32;19.30;99.90
56869;DHT22;42754;0.000;0.000;2022-09-13T08:19:00;19.40;99.90
56869;DHT22;42754;0.000;0.000;2022-09-13T08:21:32;19.40;99.90
56869;DHT22;42754;0.000;0.000;2022-09-13T08:23:58;19.40;99.90
56869;DHT22;42754;0.000;0.000;2022-09-13T08:26:29;19.50;99.90
56869;DHT22;42754;0.000;0.000;2022-09-13T08:28:57;19.50;99.90
56869;DHT22;42754;0.000;0.000;2022-09-13T08:31:24;19.60;99.90
56869;DHT22;42754;0.000;0.000;2022-09-13T08:33:49;19.70;99.90
56869;DHT22;42754;0.000;0.000;2022-09-13T08:36:32;19.70;99.90
56869;DHT22;42754;0.000;0.000;2022-09-13T08:38:59;19.70;99.90
56869;DHT22;42754;0.000;0.000;2022-09-13T08:41:51;19.80;99.90
56869;DHT22;42754;0.000;0.000;2022-09-13T08:47:21;20.40;99.90
56869;DHT22;42754;0.000;0.000;2022-09-13T08:49:58;21.00;99.90
56869;DHT22;42754;0.000;0.000;2022-09-13T08:52:47;21.70;99.90
56869;DHT22;42754;0.000;0.000;2022-09-13T09:04:08;22.00;99.90
56869;DHT22;42754;0.000;0.000;2022-09-13T09:06:35;21.90;99.90
56869;DHT22;42754;0.000;0.000;2022-09-13T09:09:14;22.00;99.90
56869;DHT22;42754;0.000;0.000;2022-09-13T09:12:10;22.10;99.90
56869;DHT22;42754;0.000;0.000;2022-09-13T09:14:41;21.80;99.90
56869;DHT22;42754;0.000;0.000;2022-09-13T09:17:28;21.70;99.90
56869;DHT22;42754;0.000;0.000;2022-09-13T09:20:06;21.80;99.90
56869;DHT22;42754;0.000;0.000;2022-09-13T09:22:34;21.80;99.90
56869;DHT22;42754;0.000;0.000;2022-09-13T09:25:03;21.70;99.90
56869;DHT22;42754;0.000;0.000;2022-09-13T09:27:30;21.60;99.90
56869;DHT22;42754;0.000;0.000;2022-09-13T09:29:56;21.50;99.90
56869;DHT22;42754;0.000;0.000;2022-09-13T09:37:35;21.50;99.90
56869;DHT22;42754;0.000;0.000;2022-09-13T09:40:08;21.20;99.90
56869;DHT22;42754;0.000;0.000;2022-09-13T09:42:45;21.10;99.90
56869;DHT22;42754;0.000;0.000;2022-09-13T09:47:50;21.00;99.90
56869;DHT22;42754;0.000;0.000;2022-09-13T09:50:23;21.10;99.90
56869;DHT22;42754;0.000;0.000;2022-09-13T09:55:39;21.10;99.90
56869;DHT22;42754;0.000;0.000;2022-09-13T09:58:15;21.10;99.90
56869;DHT22;42754;0.000;0.000;2022-09-13T10:00:56;21.20;99.90
56869;DHT22;42754;0.000;0.000;2022-09-13T10:03:28;21.30;99.90
56869;DHT22;42754;0.000;0.000;2022-09-13T10:08:33;21.40;99.90
56869;DHT22;42754;0.000;0.000;2022-09-13T10:11:00;21.50;99.90
56869;DHT22;42754;0.000;0.000;2022-09-13T10:13:28;21.60;99.90
56869;DHT22;42754;0.000;0.000;2022-09-13T10:16:03;21.60;99.90
56869;DHT22;42754;0.000;0.000;2022-09-13T10:18:34;21.60;99.90
56869;DHT22;42754;0.000;0.000;2022-09-13T10:21:09;21.70;99.90
56869;DHT22;42754;0.000;0.000;2022-09-13T10:23:45;21.70;99.90
56869;DHT22;42754;0.000;0.000;2022-09-13T10:26:31;21.70;99.90
56869;DHT22;42754;0.000;0.000;2022-09-13T10:29:14;21.60;99.90
56869;DHT22;42754;0.000;0.000;2022-09-13T10:31:46;21.50;99.90
56869;DHT22;42754;0.000;0.000;2022-09-13T10:34:32;21.60;99.90
56869;DHT22;42754;0.000;0.000;2022-09-13T10:37:03;21.80;99.90
56869;DHT22;42754;0.000;0.000;2022-09-13T10:39:32;21.80;99.90
56869;DHT22;42754;0.000;0.000;2022-09-13T10:42:04;21.70;99.90
56869;DHT22;42754;0.000;0.000;2022-09-13T10:44:42;21.70;99.90
56869;DHT22;42754;0.000;0.000;2022-09-13T10:47:19;21.70;99.90
56869;DHT22;42754;0.000;0.000;2022-09-13T10:49:51;21.70;99.90
56869;DHT22;42754;0.000;0.000;2022-09-13T10:52:33;21.40;99.90
56869;DHT22;42754;0.000;0.000;2022-09-13T10:55:27;21.30;99.90
56869;DHT22;42754;0.000;0.000;2022-09-13T10:58:16;21.30;99.90
56869;DHT22;42754;0.000;0.000;2022-09-13T11:06:15;21.50;99.90
56869;DHT22;42754;0.000;0.000;2022-09-13T11:09:35;21.50;99.90
56869;DHT22;42754;0.000;0.000;2022-09-13T11:20:10;22.00;99.90
56869;DHT22;42754;0.000;0.000;2022-09-13T11:22:47;22.20;99.90
56869;DHT22;42754;0.000;0.000;2022-09-13T11:28:08;22.00;99.90
56869;DHT22;42754;0.000;0.000;2022-09-13T11:39:47;21.90;99.90
56869;DHT22;42754;0.000;0.000;2022-09-13T11:50:35;23.00;99.90
56869;DHT22;42754;0.000;0.000;2022-09-13T11:56:11;23.10;99.90
56869;DHT22;42754;0.000;0.000;2022-09-13T11:58:47;23.40;99.90
56869;DHT22;42754;0.000;0.000;2022-09-13T12:01:53;23.60;99.90
56869;DHT22;42754;0.000;0.000;2022-09-13T12:04:49;23.50;99.90
56869;DHT22;42754;0.000;0.000;2022-09-13T12:07:24;23.30;99.90
56869;DHT22;42754;0.000;0.000;2022-09-13T12:10:01;23.20;99.90
56869;DHT22;42754;0.000;0.000;2022-09-13T12:12:32;23.00;99.90
56869;DHT22;42754;0.000;0.000;2022-09-13T12:15:13;22.80;99.90
56869;DHT22;42754;0.000;0.000;2022-09-13T12:17:42;22.90;99.90
56869;DHT22;42754;0.000;0.000;2022-09-13T12:20:30;23.20;99.90
56869;DHT22;42754;0.000;0.000;2022-09-13T12:23:00;23.50;99.90
56869;DHT22;42754;0.000;0.000;2022-09-13T12:28:33;23.30;99.90
56869;DHT22;42754;0.000;0.000;2022-09-13T12:31:04;23.30;99.90
56869;DHT22;42754;0.000;0.000;2022-09-13T12:33:31;23.30;99.90
56869;DHT22;42754;0.000;0.000;2022-09-13T12:36:35;23.10;99.90
56869;DHT22;42754;0.000;0.000;2022-09-13T13:00:33;23.50;99.90
56869;DHT22;42754;0.000;0.000;2022-09-13T13:05:49;23.30;99.90
56869;DHT22;42754;0.000;0.000;2022-09-13T13:11:00;23.30;99.90
56869;DHT22;42754;0.000;0.000;2022-09-13T13:13:33;23.30;99.90
56869;DHT22;42754;0.000;0.000;2022-09-13T13:16:06;23.80;99.90
56869;DHT22;42754;0.000;0.000;2022-09-13T13:18:47;24.30;99.90
56869;DHT22;42754;0.000;0.000;2022-09-13T13:26:51;24.60;98.00
56869;DHT22;42754;0.000;0.000;2022-09-13T13:34:45;24.80;97.20
56869;DHT22;42754;0.000;0.000;2022-09-13T13:39:47;24.60;96.70
56869;DHT22;42754;0.000;0.000;2022-09-13T13:42:26;24.60;96.70
56869;DHT22;42754;0.000;0.000;2022-09-13T13:50:18;24.60;96.40
56869;DHT22;42754;0.000;0.000;2022-09-13T13:52:51;24.50;95.70
56869;DHT22;42754;0.000;0.000;2022-09-13T14:00:50;24.60;95.00
56869;DHT22;42754;0.000;0.000;2022-09-13T14:03:21;24.80;94.50
56869;DHT22;42754;0.000;0.000;2022-09-13T14:19:45;24.30;94.30
56869;DHT22;42754;0.000;0.000;2022-09-13T14:22:21;24.70;93.90
56869;DHT22;42754;0.000;0.000;2022-09-13T14:24:48;25.00;94.40
56869;DHT22;42754;0.000;0.000;2022-09-13T14:27:26;25.10;93.60
56869;DHT22;42754;0.000;0.000;2022-09-13T14:30:16;25.00;93.80
56869;DHT22;42754;0.000;0.000;2022-09-13T14:32:45;25.20;93.90
56869;DHT22;42754;0.000;0.000;2022-09-13T14:35:27;25.10;93.10
56869;DHT22;42754;0.000;0.000;2022-09-13T14:38:11;25.30;93.30
56869;DHT22;42754;0.000;0.000;2022-09-13T14:40:37;25.30;93.20
56869;DHT22;42754;0.000;0.000;2022-09-13T14:43:14;25.20;93.60
56869;DHT22;42754;0.000;0.000;2022-09-13T14:45:43;25.30;93.70
56869;DHT22;42754;0.000;0.000;2022-09-13T14:48:18;25.20;93.00
56869;DHT22;42754;0.000;0.000;2022-09-13T14:51:02;25.10;93.20
56869;DHT22;42754;0.000;0.000;2022-09-13T14:53:31;24.90;92.70
56869;DHT22;42754;0.000;0.000;2022-09-13T14:56:06;24.70;92.30
56869;DHT22;42754;0.000;0.000;2022-09-13T14:58:41;24.70;92.70
56869;DHT22;42754;0.000;0.000;2022-09-13T15:01:10;24.60;93.50
56869;DHT22;42754;0.000;0.000;2022-09-13T15:03:44;24.20;93.50
56869;DHT22;42754;0.000;0.000;2022-09-13T15:06:39;24.10;93.70
56869;DHT22;42754;0.000;0.000;2022-09-13T15:11:37;23.80;94.70
56869;DHT22;42754;0.000;0.000;2022-09-13T15:16:58;24.20;93.90
56869;DHT22;42754;0.000;0.000;2022-09-13T15:19:29;24.40;93.70
56869;DHT22;42754;0.000;0.000;2022-09-13T15:22:16;24.40;93.30
56869;DHT22;42754;0.000;0.000;2022-09-13T15:24:54;24.50;93.10
56869;DHT22;42754;0.000;0.000;2022-09-13T15:27:27;24.30;94.00
56869;DHT22;42754;0.000;0.000;2022-09-13T15:30:38;23.90;93.80
56869;DHT22;42754;0.000;0.000;2022-09-13T15:33:19;23.40;93.80
56869;DHT22;42754;0.000;0.000;2022-09-13T15:35:47;23.30;93.80
56869;DHT22;42754;0.000;0.000;2022-09-13T15:40:47;23.10;95.10
56869;DHT22;42754;0.000;0.000;2022-09-13T15:43:22;23.00;95.10
56869;DHT22;42754;0.000;0.000;2022-09-13T15:45:47;23.00;95.20
56869;DHT22;42754;0.000;0.000;2022-09-13T15:48:26;22.90;95.50
56869;DHT22;42754;0.000;0.000;2022-09-13T15:51:10;22.90;95.80
56869;DHT22;42754;0.000;0.000;2022-09-13T15:53:37;22.70;95.40
56869;DHT22;42754;0.000;0.000;2022-09-13T15:56:06;22.60;95.50
56869;DHT22;42754;0.000;0.000;2022-09-13T15:58:33;22.60;95.70
56869;DHT22;42754;0.000;0.000;2022-09-13T16:00:59;22.60;95.80
56869;DHT22;42754;0.000;0.000;2022-09-13T16:03:25;22.60;95.70
56869;DHT22;42754;0.000;0.000;2022-09-13T16:05:51;22.60;95.70
56869;DHT22;42754;0.000;0.000;2022-09-13T16:08:17;22.60;95.50
56869;DHT22;42754;0.000;0.000;2022-09-13T16:10:51;22.50;95.40
56869;DHT22;42754;0.000;0.000;2022-09-13T16:13:17;22.50;95.90
56869;DHT22;42754;0.000;0.000;2022-09-13T16:15:46;22.40;95.60
56869;DHT22;42754;0.000;0.000;2022-09-13T16:18:14;22.20;95.50
56869;DHT22;42754;0.000;0.000;2022-09-13T16:20:42;22.10;95.70
56869;DHT22;42754;0.000;0.000;2022-09-13T16:23:07;22.10;95.80
56869;DHT22;42754;0.000;0.000;2022-09-13T16:25:34;22.00;95.90
56869;DHT22;42754;0.000;0.000;2022-09-13T16:28:01;22.00;96.00
56869;DHT22;42754;0.000;0.000;2022-09-13T16:30:27;21.90;96.50
56869;DHT22;42754;0.000;0.000;2022-09-13T16:32:55;21.90;96.20
56869;DHT22;42754;0.000;0.000;2022-09-13T16:35:28;21.90;95.90
56869;DHT22;42754;0.000;0.000;2022-09-13T16:37:55;21.70;96.00
56869;DHT22;42754;0.000;0.000;2022-09-13T16:40:22;21.70;96.20
56869;DHT22;42754;0.000;0.000;2022-09-13T16:42:48;21.50;96.30
56869;DHT22;42754;0.000;0.000;2022-09-13T16:45:13;21.40;96.50
56869;DHT22;42754;0.000;0.000;2022-09-13T16:47:39;21.40;96.60
56869;DHT22;42754;0.000;0.000;2022-09-13T16:50:09;21.20;96.10
56869;DHT22;42754;0.000;0.000;2022-09-13T16:52:35;21.20;96.30
56869;DHT22;42754;0.000;0.000;2022-09-13T16:55:01;21.20;96.50
56869;DHT22;42754;0.000;0.000;2022-09-13T16:57:27;21.20;96.40
56869;DHT22;42754;0.000;0.000;2022-09-13T16:59:53;21.10;96.40
56869;DHT22;42754;0.000;0.000;2022-09-13T17:02:23;21.00;96.10
56869;DHT22;42754;0.000;0.000;2022-09-13T17:04:49;20.80;96.20
56869;DHT22;42754;0.000;0.000;2022-09-13T17:07:18;20.90;96.40
56869;DHT22;42754;0.000;0.000;2022-09-13T17:09:44;20.80;96.30
56869;DHT22;42754;0.000;0.000;2022-09-13T17:12:12;20.70;96.50
56869;DHT22;42754;0.000;0.000;2022-09-13T17:14:39;20.60;96.70
56869;DHT22;42754;0.000;0.000;2022-09-13T17:17:08;20.60;96.80
56869;DHT22;42754;0.000;0.000;2022-09-13T17:19:34;20.50;96.70
56869;DHT22;42754;0.000;0.000;2022-09-13T17:22:01;20.50;96.90
56869;DHT22;42754;0.000;0.000;2022-09-13T17:24:28;20.50;96.90
56869;DHT22;42754;0.000;0.000;2022-09-13T17:26:55;20.40;97.00
56869;DHT22;42754;0.000;0.000;2022-09-13T17:29:22;20.30;96.90
56869;DHT22;42754;0.000;0.000;2022-09-13T17:31:52;20.40;97.40
56869;DHT22;42754;0.000;0.000;2022-09-13T17:34:18;20.30;97.30
56869;DHT22;42754;0.000;0.000;2022-09-13T17:36:45;20.20;97.30
56869;DHT22;42754;0.000;0.000;2022-09-13T17:39:10;20.20;97.30
56869;DHT22;42754;0.000;0.000;2022-09-13T17:41:37;20.20;97.40
56869;DHT22;42754;0.000;0.000;2022-09-13T17:44:03;20.10;97.70
56869;DHT22;42754;0.000;0.000;2022-09-13T17:46:31;20.10;97.60
56869;DHT22;42754;0.000;0.000;2022-09-13T17:48:58;19.90;97.60
56869;DHT22;42754;0.000;0.000;2022-09-13T17:51:28;19.90;97.60
56869;DHT22;42754;0.000;0.000;2022-09-13T17:53:56;19.80;97.80
56869;DHT22;42754;0.000;0.000;2022-09-13T17:56:31;19.80;98.00
56869;DHT22;42754;0.000;0.000;2022-09-13T17:59:18;19.60;98.30
56869;DHT22;42754;0.000;0.000;2022-09-13T18:01:50;19.70;98.10
56869;DHT22;42754;0.000;0.000;2022-09-13T18:04:19;19.70;98.30
56869;DHT22;42754;0.000;0.000;2022-09-13T18:06:45;19.60;98.30
56869;DHT22;42754;0.000;0.000;2022-09-13T18:09:13;19.60;98.40
56869;DHT22;42754;0.000;0.000;2022-09-13T18:11:48;19.50;98.50
56869;DHT22;42754;0.000;0.000;2022-09-13T18:14:15;19.50;98.60
56869;DHT22;42754;0.000;0.000;2022-09-13T18:16:46;19.50;98.70
56869;DHT22;42754;0.000;0.000;2022-09-13T18:19:16;19.50;98.50
56869;DHT22;42754;0.000;0.000;2022-09-13T18:21:41;19.40;98.70
56869;DHT22;42754;0.000;0.000;2022-09-13T18:24:07;19.40;98.50
56869;DHT22;42754;0.000;0.000;2022-09-13T18:26:34;19.30;98.80
56869;DHT22;42754;0.000;0.000;2022-09-13T18:29:02;19.30;98.80
56869;DHT22;42754;0.000;0.000;2022-09-13T18:31:31;19.30;98.60
56869;DHT22;42754;0.000;0.000;2022-09-13T18:34:00;19.20;98.80
56869;DHT22;42754;0.000;0.000;2022-09-13T18:36:28;19.30;98.80
56869;DHT22;42754;0.000;0.000;2022-09-13T18:38:55;19.20;98.90
56869;DHT22;42754;0.000;0.000;2022-09-13T18:41:26;19.10;99.00
56869;DHT22;42754;0.000;0.000;2022-09-13T18:43:53;19.00;99.20
56869;DHT22;42754;0.000;0.000;2022-09-13T18:46:21;19.00;99.30
56869;DHT22;42754;0.000;0.000;2022-09-13T18:48:52;19.00;99.30
56869;DHT22;42754;0.000;0.000;2022-09-13T18:51:21;19.10;99.40
56869;DHT22;42754;0.000;0.000;2022-09-13T18:53:48;19.00;99.30
56869;DHT22;42754;0.000;0.000;2022-09-13T18:56:16;19.00;99.40
56869;DHT22;42754;0.000;0.000;2022-09-13T18:58:43;18.90;99.70